Terminal Aerodrome Forecast
Issued by NWS Duluth, MN

Home | Current Version | Previous Version | Text Only | Print | Product List | Glossary On
Versions: 1 2 3 4 5 6 7 8 9 10 11 12 13 14 15 16 17 18 19 20 21 22 23
000
FTUS43 KDLH 031127
TAFDLH
TAF
KDLH 031127Z 0312/0412 28009KT P6SM VCSH SCT080 BKN100
     FM031500 26010KT P6SM BKN050
     FM031900 27009KT P6SM VCSH BKN050
      TEMPO 0319/0323 6SM -TSRA BKN035CB
     FM032300 31009KT P6SM VCSH BKN060
     FM040300 35005KT P6SM SCT070=

USA.gov is the U.S. government's official web portal to all federal, state and local government web resources and services.